sensor_id;sensor_type;location;lat;lon;timestamp;P1;durP1;ratioP1;P2;durP2;ratioP2
9142;SDS011;54072;47.410;8.446;2023-04-07T00:01:52;3.43;;;2.90;;
9142;SDS011;54072;47.410;8.446;2023-04-07T00:04:20;4.30;;;2.93;;
9142;SDS011;54072;47.410;8.446;2023-04-07T00:06:47;3.03;;;2.73;;
9142;SDS011;54072;47.410;8.446;2023-04-07T00:09:15;3.90;;;2.80;;
9142;SDS011;54072;47.410;8.446;2023-04-07T00:11:43;2.70;;;2.50;;
9142;SDS011;54072;47.410;8.446;2023-04-07T00:14:11;4.00;;;2.83;;
9142;SDS011;54072;47.410;8.446;2023-04-07T00:16:40;4.00;;;2.73;;
9142;SDS011;54072;47.410;8.446;2023-04-07T00:19:07;4.33;;;2.70;;
9142;SDS011;54072;47.410;8.446;2023-04-07T00:21:35;3.00;;;2.70;;
9142;SDS011;54072;47.410;8.446;2023-04-07T00:24:03;3.53;;;3.00;;
9142;SDS011;54072;47.410;8.446;2023-04-07T00:26:31;4.23;;;2.93;;
9142;SDS011;54072;47.410;8.446;2023-04-07T00:28:59;6.77;;;3.40;;
9142;SDS011;54072;47.410;8.446;2023-04-07T00:31:26;5.30;;;3.33;;
9142;SDS011;54072;47.410;8.446;2023-04-07T00:33:55;4.10;;;3.03;;
9142;SDS011;54072;47.410;8.446;2023-04-07T00:36:24;3.10;;;2.77;;
9142;SDS011;54072;47.410;8.446;2023-04-07T00:38:52;4.33;;;3.17;;
9142;SDS011;54072;47.410;8.446;2023-04-07T00:41:19;4.47;;;3.27;;
9142;SDS011;54072;47.410;8.446;2023-04-07T00:43:48;3.17;;;2.87;;
9142;SDS011;54072;47.410;8.446;2023-04-07T00:46:17;4.13;;;3.17;;
9142;SDS011;54072;47.410;8.446;2023-04-07T00:48:46;4.00;;;3.00;;
9142;SDS011;54072;47.410;8.446;2023-04-07T00:51:15;3.47;;;3.03;;
9142;SDS011;54072;47.410;8.446;2023-04-07T00:53:44;3.50;;;3.07;;
9142;SDS011;54072;47.410;8.446;2023-04-07T00:56:12;4.87;;;3.50;;
9142;SDS011;54072;47.410;8.446;2023-04-07T00:58:40;3.37;;;2.80;;
9142;SDS011;54072;47.410;8.446;2023-04-07T01:01:08;4.33;;;3.00;;
9142;SDS011;54072;47.410;8.446;2023-04-07T01:03:41;3.67;;;3.27;;
9142;SDS011;54072;47.410;8.446;2023-04-07T01:06:12;3.63;;;3.10;;
9142;SDS011;54072;47.410;8.446;2023-04-07T01:08:45;3.20;;;2.90;;
9142;SDS011;54072;47.410;8.446;2023-04-07T01:11:19;3.27;;;3.00;;
9142;SDS011;54072;47.410;8.446;2023-04-07T01:13:51;3.07;;;2.83;;
9142;SDS011;54072;47.410;8.446;2023-04-07T01:16:22;5.13;;;3.00;;
9142;SDS011;54072;47.410;8.446;2023-04-07T01:18:51;3.53;;;3.23;;
9142;SDS011;54072;47.410;8.446;2023-04-07T01:21:21;3.47;;;2.70;;
9142;SDS011;54072;47.410;8.446;2023-04-07T01:24:00;4.83;;;3.23;;
9142;SDS011;54072;47.410;8.446;2023-04-07T01:26:32;5.13;;;3.00;;
9142;SDS011;54072;47.410;8.446;2023-04-07T01:29:08;4.30;;;2.93;;
9142;SDS011;54072;47.410;8.446;2023-04-07T01:31:45;3.33;;;3.00;;
9142;SDS011;54072;47.410;8.446;2023-04-07T01:34:15;4.50;;;3.40;;
9142;SDS011;54072;47.410;8.446;2023-04-07T01:36:44;4.17;;;2.90;;
9142;SDS011;54072;47.410;8.446;2023-04-07T01:39:13;4.07;;;2.93;;
9142;SDS011;54072;47.410;8.446;2023-04-07T01:41:41;3.80;;;3.13;;
9142;SDS011;54072;47.410;8.446;2023-04-07T01:44:09;2.90;;;2.60;;
9142;SDS011;54072;47.410;8.446;2023-04-07T01:46:39;2.80;;;2.60;;
9142;SDS011;54072;47.410;8.446;2023-04-07T01:49:06;2.90;;;2.50;;
9142;SDS011;54072;47.410;8.446;2023-04-07T01:51:34;2.80;;;2.60;;
9142;SDS011;54072;47.410;8.446;2023-04-07T01:54:02;3.13;;;2.80;;
9142;SDS011;54072;47.410;8.446;2023-04-07T01:56:30;2.80;;;2.60;;
9142;SDS011;54072;47.410;8.446;2023-04-07T01:58:58;3.27;;;2.97;;
9142;SDS011;54072;47.410;8.446;2023-04-07T02:01:26;3.23;;;2.77;;
9142;SDS011;54072;47.410;8.446;2023-04-07T02:03:58;3.27;;;2.97;;
9142;SDS011;54072;47.410;8.446;2023-04-07T02:06:34;3.40;;;2.73;;
9142;SDS011;54072;47.410;8.446;2023-04-07T02:09:07;2.93;;;2.67;;
9142;SDS011;54072;47.410;8.446;2023-04-07T02:11:38;3.03;;;2.70;;
9142;SDS011;54072;47.410;8.446;2023-04-07T02:14:06;5.77;;;2.97;;
9142;SDS011;54072;47.410;8.446;2023-04-07T02:16:35;4.70;;;3.00;;
9142;SDS011;54072;47.410;8.446;2023-04-07T02:19:05;5.27;;;3.20;;
9142;SDS011;54072;47.410;8.446;2023-04-07T02:21:33;3.60;;;3.00;;
9142;SDS011;54072;47.410;8.446;2023-04-07T02:24:04;5.10;;;3.20;;
9142;SDS011;54072;47.410;8.446;2023-04-07T02:26:32;3.27;;;2.97;;
9142;SDS011;54072;47.410;8.446;2023-04-07T02:29:01;4.10;;;2.90;;
9142;SDS011;54072;47.410;8.446;2023-04-07T02:31:29;3.63;;;3.10;;
9142;SDS011;54072;47.410;8.446;2023-04-07T02:33:57;3.40;;;3.10;;
9142;SDS011;54072;47.410;8.446;2023-04-07T02:36:26;5.07;;;2.97;;
9142;SDS011;54072;47.410;8.446;2023-04-07T02:38:54;4.13;;;2.87;;
9142;SDS011;54072;47.410;8.446;2023-04-07T02:41:21;3.80;;;2.97;;
9142;SDS011;54072;47.410;8.446;2023-04-07T02:43:49;3.63;;;3.00;;
9142;SDS011;54072;47.410;8.446;2023-04-07T02:46:17;3.27;;;2.97;;
9142;SDS011;54072;47.410;8.446;2023-04-07T02:48:44;3.07;;;2.70;;
9142;SDS011;54072;47.410;8.446;2023-04-07T02:51:12;3.33;;;2.93;;
9142;SDS011;54072;47.410;8.446;2023-04-07T02:53:41;4.57;;;2.80;;
9142;SDS011;54072;47.410;8.446;2023-04-07T02:56:09;5.13;;;3.30;;
9142;SDS011;54072;47.410;8.446;2023-04-07T02:58:36;5.00;;;3.30;;
9142;SDS011;54072;47.410;8.446;2023-04-07T03:01:04;3.90;;;3.07;;
9142;SDS011;54072;47.410;8.446;2023-04-07T03:03:32;4.10;;;2.70;;
9142;SDS011;54072;47.410;8.446;2023-04-07T03:05:59;3.27;;;2.97;;
9142;SDS011;54072;47.410;8.446;2023-04-07T03:08:27;3.67;;;2.90;;
9142;SDS011;54072;47.410;8.446;2023-04-07T03:10:56;5.17;;;2.97;;
9142;SDS011;54072;47.410;8.446;2023-04-07T03:13:24;3.33;;;2.60;;
9142;SDS011;54072;47.410;8.446;2023-04-07T03:15:54;4.47;;;3.23;;
9142;SDS011;54072;47.410;8.446;2023-04-07T03:18:22;3.00;;;2.80;;
9142;SDS011;54072;47.410;8.446;2023-04-07T03:20:50;3.63;;;3.03;;
9142;SDS011;54072;47.410;8.446;2023-04-07T03:23:20;2.70;;;2.50;;
9142;SDS011;54072;47.410;8.446;2023-04-07T03:25:49;2.93;;;2.73;;
9142;SDS011;54072;47.410;8.446;2023-04-07T03:28:18;3.53;;;2.80;;
9142;SDS011;54072;47.410;8.446;2023-04-07T03:30:46;3.53;;;3.00;;
9142;SDS011;54072;47.410;8.446;2023-04-07T03:33:14;3.53;;;2.90;;
9142;SDS011;54072;47.410;8.446;2023-04-07T03:35:42;4.27;;;3.00;;
9142;SDS011;54072;47.410;8.446;2023-04-07T03:38:09;3.13;;;2.77;;
9142;SDS011;54072;47.410;8.446;2023-04-07T03:40:37;3.80;;;2.50;;
9142;SDS011;54072;47.410;8.446;2023-04-07T03:43:05;3.03;;;2.73;;
9142;SDS011;54072;47.410;8.446;2023-04-07T03:45:38;3.93;;;3.00;;
9142;SDS011;54072;47.410;8.446;2023-04-07T03:48:06;4.87;;;2.80;;
9142;SDS011;54072;47.410;8.446;2023-04-07T03:50:35;3.60;;;2.73;;
9142;SDS011;54072;47.410;8.446;2023-04-07T03:53:03;3.07;;;2.77;;
9142;SDS011;54072;47.410;8.446;2023-04-07T03:55:31;3.63;;;2.63;;
9142;SDS011;54072;47.410;8.446;2023-04-07T03:57:59;4.33;;;2.80;;
9142;SDS011;54072;47.410;8.446;2023-04-07T04:00:27;4.13;;;2.70;;
9142;SDS011;54072;47.410;8.446;2023-04-07T04:02:58;3.60;;;3.00;;
9142;SDS011;54072;47.410;8.446;2023-04-07T04:05:26;5.53;;;3.00;;
9142;SDS011;54072;47.410;8.446;2023-04-07T04:07:54;3.20;;;2.90;;
9142;SDS011;54072;47.410;8.446;2023-04-07T04:10:21;4.20;;;3.00;;
9142;SDS011;54072;47.410;8.446;2023-04-07T04:12:49;4.13;;;3.10;;
9142;SDS011;54072;47.410;8.446;2023-04-07T04:15:17;3.83;;;2.90;;
9142;SDS011;54072;47.410;8.446;2023-04-07T04:17:45;3.93;;;2.60;;
9142;SDS011;54072;47.410;8.446;2023-04-07T04:20:14;2.80;;;2.57;;
9142;SDS011;54072;47.410;8.446;2023-04-07T04:22:42;4.30;;;2.63;;
9142;SDS011;54072;47.410;8.446;2023-04-07T04:25:09;3.30;;;3.00;;
9142;SDS011;54072;47.410;8.446;2023-04-07T04:27:37;3.30;;;2.90;;
9142;SDS011;54072;47.410;8.446;2023-04-07T04:30:05;5.27;;;3.03;;
9142;SDS011;54072;47.410;8.446;2023-04-07T04:32:34;3.97;;;2.97;;
9142;SDS011;54072;47.410;8.446;2023-04-07T04:35:02;3.03;;;2.70;;
9142;SDS011;54072;47.410;8.446;2023-04-07T04:37:31;2.87;;;2.60;;
9142;SDS011;54072;47.410;8.446;2023-04-07T04:39:59;4.23;;;3.00;;
9142;SDS011;54072;47.410;8.446;2023-04-07T04:42:27;3.23;;;2.93;;
9142;SDS011;54072;47.410;8.446;2023-04-07T04:44:56;5.20;;;2.93;;
9142;SDS011;54072;47.410;8.446;2023-04-07T04:47:24;3.40;;;3.10;;
9142;SDS011;54072;47.410;8.446;2023-04-07T04:49:52;4.30;;;3.17;;
9142;SDS011;54072;47.410;8.446;2023-04-07T04:52:19;3.23;;;2.73;;
9142;SDS011;54072;47.410;8.446;2023-04-07T04:54:49;5.00;;;3.13;;
9142;SDS011;54072;47.410;8.446;2023-04-07T04:57:16;3.73;;;3.20;;
9142;SDS011;54072;47.410;8.446;2023-04-07T04:59:44;3.57;;;3.07;;
9142;SDS011;54072;47.410;8.446;2023-04-07T05:02:12;3.93;;;2.90;;
9142;SDS011;54072;47.410;8.446;2023-04-07T05:04:39;4.57;;;2.97;;
9142;SDS011;54072;47.410;8.446;2023-04-07T05:07:07;4.63;;;3.10;;
9142;SDS011;54072;47.410;8.446;2023-04-07T05:09:35;3.40;;;3.10;;
9142;SDS011;54072;47.410;8.446;2023-04-07T05:12:04;4.47;;;3.03;;
9142;SDS011;54072;47.410;8.446;2023-04-07T05:14:32;3.90;;;3.20;;
9142;SDS011;54072;47.410;8.446;2023-04-07T05:17:00;4.97;;;3.10;;
9142;SDS011;54072;47.410;8.446;2023-04-07T05:19:27;3.87;;;3.23;;
9142;SDS011;54072;47.410;8.446;2023-04-07T05:21:56;4.30;;;3.20;;
9142;SDS011;54072;47.410;8.446;2023-04-07T05:24:24;3.70;;;3.10;;
9142;SDS011;54072;47.410;8.446;2023-04-07T05:26:53;3.80;;;3.20;;
9142;SDS011;54072;47.410;8.446;2023-04-07T05:29:23;3.40;;;2.90;;
9142;SDS011;54072;47.410;8.446;2023-04-07T05:31:51;4.60;;;3.23;;
9142;SDS011;54072;47.410;8.446;2023-04-07T05:34:19;4.93;;;3.30;;
9142;SDS011;54072;47.410;8.446;2023-04-07T05:36:46;4.13;;;2.90;;
9142;SDS011;54072;47.410;8.446;2023-04-07T05:39:14;3.87;;;3.40;;
9142;SDS011;54072;47.410;8.446;2023-04-07T05:41:42;4.83;;;3.17;;
9142;SDS011;54072;47.410;8.446;2023-04-07T05:44:10;4.10;;;2.87;;
9142;SDS011;54072;47.410;8.446;2023-04-07T05:46:39;3.50;;;3.20;;
9142;SDS011;54072;47.410;8.446;2023-04-07T05:49:06;3.73;;;3.30;;
9142;SDS011;54072;47.410;8.446;2023-04-07T05:51:44;3.60;;;3.30;;
9142;SDS011;54072;47.410;8.446;2023-04-07T05:54:12;4.93;;;3.37;;
9142;SDS011;54072;47.410;8.446;2023-04-07T05:56:40;4.33;;;3.10;;
9142;SDS011;54072;47.410;8.446;2023-04-07T05:59:08;5.07;;;3.37;;
9142;SDS011;54072;47.410;8.446;2023-04-07T06:01:35;3.97;;;3.10;;
9142;SDS011;54072;47.410;8.446;2023-04-07T06:04:05;4.20;;;3.40;;
9142;SDS011;54072;47.410;8.446;2023-04-07T06:06:32;3.70;;;3.27;;
9142;SDS011;54072;47.410;8.446;2023-04-07T06:09:00;5.17;;;3.27;;
9142;SDS011;54072;47.410;8.446;2023-04-07T06:11:28;4.53;;;3.30;;
9142;SDS011;54072;47.410;8.446;2023-04-07T06:13:56;4.93;;;3.20;;
9142;SDS011;54072;47.410;8.446;2023-04-07T06:16:23;4.97;;;3.30;;
9142;SDS011;54072;47.410;8.446;2023-04-07T06:18:51;3.30;;;3.00;;
9142;SDS011;54072;47.410;8.446;2023-04-07T06:21:20;4.37;;;3.10;;
9142;SDS011;54072;47.410;8.446;2023-04-07T06:23:48;4.97;;;3.00;;
9142;SDS011;54072;47.410;8.446;2023-04-07T06:26:16;3.37;;;3.03;;
9142;SDS011;54072;47.410;8.446;2023-04-07T06:28:43;5.40;;;3.20;;
9142;SDS011;54072;47.410;8.446;2023-04-07T06:31:11;6.03;;;3.87;;
9142;SDS011;54072;47.410;8.446;2023-04-07T06:33:39;4.23;;;3.33;;
9142;SDS011;54072;47.410;8.446;2023-04-07T06:36:07;4.20;;;3.60;;
9142;SDS011;54072;47.410;8.446;2023-04-07T06:38:36;5.80;;;3.70;;
9142;SDS011;54072;47.410;8.446;2023-04-07T06:41:04;4.67;;;3.80;;
9142;SDS011;54072;47.410;8.446;2023-04-07T06:43:33;3.80;;;3.50;;
9142;SDS011;54072;47.410;8.446;2023-04-07T06:46:01;4.77;;;3.63;;
9142;SDS011;54072;47.410;8.446;2023-04-07T06:48:29;4.67;;;3.60;;
9142;SDS011;54072;47.410;8.446;2023-04-07T06:50:56;4.07;;;3.40;;
9142;SDS011;54072;47.410;8.446;2023-04-07T06:53:24;4.37;;;3.63;;
9142;SDS011;54072;47.410;8.446;2023-04-07T06:56:02;4.20;;;3.67;;
9142;SDS011;54072;47.410;8.446;2023-04-07T06:58:31;5.57;;;4.10;;
9142;SDS011;54072;47.410;8.446;2023-04-07T07:00:59;4.30;;;3.50;;
9142;SDS011;54072;47.410;8.446;2023-04-07T07:03:27;3.83;;;3.47;;
9142;SDS011;54072;47.410;8.446;2023-04-07T07:05:55;4.67;;;3.50;;
9142;SDS011;54072;47.410;8.446;2023-04-07T07:08:23;4.23;;;3.73;;
9142;SDS011;54072;47.410;8.446;2023-04-07T07:10:50;4.27;;;3.40;;
9142;SDS011;54072;47.410;8.446;2023-04-07T07:13:21;4.63;;;3.90;;
9142;SDS011;54072;47.410;8.446;2023-04-07T07:15:49;7.00;;;4.00;;
9142;SDS011;54072;47.410;8.446;2023-04-07T07:18:17;6.93;;;5.20;;
9142;SDS011;54072;47.410;8.446;2023-04-07T07:20:45;5.83;;;4.30;;
9142;SDS011;54072;47.410;8.446;2023-04-07T07:23:13;5.43;;;4.23;;
9142;SDS011;54072;47.410;8.446;2023-04-07T07:25:40;6.57;;;4.87;;
9142;SDS011;54072;47.410;8.446;2023-04-07T07:28:08;5.33;;;4.10;;
9142;SDS011;54072;47.410;8.446;2023-04-07T07:30:37;5.57;;;4.23;;
9142;SDS011;54072;47.410;8.446;2023-04-07T07:33:05;4.67;;;3.90;;
9142;SDS011;54072;47.410;8.446;2023-04-07T07:35:33;6.57;;;4.10;;
9142;SDS011;54072;47.410;8.446;2023-04-07T07:38:03;4.30;;;3.90;;
9142;SDS011;54072;47.410;8.446;2023-04-07T07:40:31;6.43;;;3.63;;
9142;SDS011;54072;47.410;8.446;2023-04-07T07:42:59;4.50;;;4.10;;
9142;SDS011;54072;47.410;8.446;2023-04-07T07:45:27;4.97;;;3.90;;
9142;SDS011;54072;47.410;8.446;2023-04-07T07:47:56;4.57;;;4.00;;
9142;SDS011;54072;47.410;8.446;2023-04-07T07:50:23;4.20;;;3.80;;
9142;SDS011;54072;47.410;8.446;2023-04-07T07:52:51;6.67;;;4.70;;
9142;SDS011;54072;47.410;8.446;2023-04-07T07:55:19;5.53;;;4.43;;
9142;SDS011;54072;47.410;8.446;2023-04-07T07:57:46;4.23;;;3.83;;
9142;SDS011;54072;47.410;8.446;2023-04-07T08:00:14;4.30;;;3.90;;
9142;SDS011;54072;47.410;8.446;2023-04-07T08:02:42;7.37;;;4.83;;
9142;SDS011;54072;47.410;8.446;2023-04-07T08:05:11;5.50;;;4.40;;
9142;SDS011;54072;47.410;8.446;2023-04-07T08:07:39;4.90;;;3.50;;
9142;SDS011;54072;47.410;8.446;2023-04-07T08:10:08;5.57;;;3.67;;
9142;SDS011;54072;47.410;8.446;2023-04-07T08:12:36;3.77;;;3.37;;
9142;SDS011;54072;47.410;8.446;2023-04-07T08:15:04;4.03;;;3.43;;
9142;SDS011;54072;47.410;8.446;2023-04-07T08:17:32;4.83;;;3.90;;
9142;SDS011;54072;47.410;8.446;2023-04-07T08:20:00;6.50;;;3.87;;
9142;SDS011;54072;47.410;8.446;2023-04-07T08:22:30;4.20;;;3.60;;
9142;SDS011;54072;47.410;8.446;2023-04-07T08:24:57;3.70;;;3.33;;
9142;SDS011;54072;47.410;8.446;2023-04-07T08:27:25;4.97;;;3.47;;
9142;SDS011;54072;47.410;8.446;2023-04-07T08:29:57;5.30;;;3.40;;
9142;SDS011;54072;47.410;8.446;2023-04-07T08:32:32;3.70;;;3.40;;
9142;SDS011;54072;47.410;8.446;2023-04-07T08:35:01;3.93;;;3.50;;
9142;SDS011;54072;47.410;8.446;2023-04-07T08:37:30;3.67;;;3.33;;
9142;SDS011;54072;47.410;8.446;2023-04-07T08:39:59;5.10;;;3.33;;
9142;SDS011;54072;47.410;8.446;2023-04-07T08:42:28;4.63;;;3.57;;
9142;SDS011;54072;47.410;8.446;2023-04-07T08:44:57;7.33;;;3.43;;
9142;SDS011;54072;47.410;8.446;2023-04-07T08:47:26;3.83;;;3.40;;
9142;SDS011;54072;47.410;8.446;2023-04-07T08:49:55;3.10;;;2.80;;
9142;SDS011;54072;47.410;8.446;2023-04-07T08:52:24;3.50;;;3.20;;
9142;SDS011;54072;47.410;8.446;2023-04-07T08:55:00;3.97;;;2.80;;
9142;SDS011;54072;47.410;8.446;2023-04-07T08:57:29;3.13;;;2.83;;
9142;SDS011;54072;47.410;8.446;2023-04-07T08:59:57;3.30;;;3.00;;
9142;SDS011;54072;47.410;8.446;2023-04-07T09:02:30;3.88;;;3.58;;
9142;SDS011;54072;47.410;8.446;2023-04-07T09:04:58;3.20;;;2.90;;
9142;SDS011;54072;47.410;8.446;2023-04-07T09:07:27;3.30;;;2.97;;
9142;SDS011;54072;47.410;8.446;2023-04-07T09:09:54;3.77;;;3.10;;
9142;SDS011;54072;47.410;8.446;2023-04-07T09:12:24;3.17;;;2.87;;
9142;SDS011;54072;47.410;8.446;2023-04-07T09:14:53;3.30;;;3.00;;
9142;SDS011;54072;47.410;8.446;2023-04-07T09:17:21;2.90;;;2.70;;
9142;SDS011;54072;47.410;8.446;2023-04-07T09:19:51;3.20;;;2.90;;
9142;SDS011;54072;47.410;8.446;2023-04-07T09:22:33;4.00;;;2.60;;
9142;SDS011;54072;47.410;8.446;2023-04-07T09:25:14;3.03;;;2.70;;
9142;SDS011;54072;47.410;8.446;2023-04-07T09:27:57;3.37;;;2.80;;
9142;SDS011;54072;47.410;8.446;2023-04-07T09:30:26;2.57;;;2.37;;
9142;SDS011;54072;47.410;8.446;2023-04-07T09:32:54;2.57;;;2.37;;
9142;SDS011;54072;47.410;8.446;2023-04-07T09:35:22;2.50;;;2.30;;
9142;SDS011;54072;47.410;8.446;2023-04-07T09:38:01;2.93;;;2.60;;
9142;SDS011;54072;47.410;8.446;2023-04-07T09:40:30;2.73;;;2.53;;
9142;SDS011;54072;47.410;8.446;2023-04-07T09:43:00;2.73;;;2.53;;
9142;SDS011;54072;47.410;8.446;2023-04-07T09:45:29;2.73;;;2.53;;
9142;SDS011;54072;47.410;8.446;2023-04-07T09:48:03;2.60;;;2.40;;
9142;SDS011;54072;47.410;8.446;2023-04-07T09:50:32;2.83;;;2.43;;
9142;SDS011;54072;47.410;8.446;2023-04-07T09:53:01;4.43;;;2.80;;
9142;SDS011;54072;47.410;8.446;2023-04-07T09:55:29;2.60;;;2.40;;
9142;SDS011;54072;47.410;8.446;2023-04-07T09:58:00;2.60;;;2.40;;
9142;SDS011;54072;47.410;8.446;2023-04-07T10:00:28;2.40;;;2.20;;
9142;SDS011;54072;47.410;8.446;2023-04-07T10:02:56;2.50;;;2.30;;
9142;SDS011;54072;47.410;8.446;2023-04-07T10:05:24;2.83;;;2.43;;
9142;SDS011;54072;47.410;8.446;2023-04-07T10:07:52;2.27;;;2.07;;
9142;SDS011;54072;47.410;8.446;2023-04-07T10:10:20;2.37;;;2.17;;
9142;SDS011;54072;47.410;8.446;2023-04-07T10:12:48;2.27;;;2.10;;
9142;SDS011;54072;47.410;8.446;2023-04-07T10:15:17;2.57;;;2.30;;
9142;SDS011;54072;47.410;8.446;2023-04-07T10:17:46;2.50;;;2.10;;
9142;SDS011;54072;47.410;8.446;2023-04-07T10:20:14;2.00;;;1.90;;
9142;SDS011;54072;47.410;8.446;2023-04-07T10:22:44;2.43;;;2.07;;
9142;SDS011;54072;47.410;8.446;2023-04-07T10:25:13;2.40;;;1.93;;
9142;SDS011;54072;47.410;8.446;2023-04-07T10:27:44;2.10;;;1.90;;
9142;SDS011;54072;47.410;8.446;2023-04-07T10:30:19;2.60;;;2.40;;
9142;SDS011;54072;47.410;8.446;2023-04-07T10:32:50;2.10;;;2.00;;
9142;SDS011;54072;47.410;8.446;2023-04-07T10:35:19;1.90;;;1.80;;
9142;SDS011;54072;47.410;8.446;2023-04-07T10:40:39;2.53;;;2.33;;
9142;SDS011;54072;47.410;8.446;2023-04-07T10:43:08;1.90;;;1.80;;
9142;SDS011;54072;47.410;8.446;2023-04-07T10:45:56;2.07;;;1.93;;
9142;SDS011;54072;47.410;8.446;2023-04-07T10:48:26;2.20;;;2.00;;
9142;SDS011;54072;47.410;8.446;2023-04-07T10:51:12;2.83;;;2.47;;
9142;SDS011;54072;47.410;8.446;2023-04-07T10:57:04;2.27;;;2.10;;
9142;SDS011;54072;47.410;8.446;2023-04-07T11:02:45;2.00;;;1.90;;
9142;SDS011;54072;47.410;8.446;2023-04-07T11:05:19;2.63;;;2.40;;
9142;SDS011;54072;47.410;8.446;2023-04-07T11:07:49;2.23;;;2.10;;
9142;SDS011;54072;47.410;8.446;2023-04-07T11:10:20;2.00;;;1.90;;
9142;SDS011;54072;47.410;8.446;2023-04-07T11:12:58;2.17;;;1.93;;
9142;SDS011;54072;47.410;8.446;2023-04-07T11:15:29;2.87;;;2.20;;
9142;SDS011;54072;47.410;8.446;2023-04-07T11:18:09;2.40;;;2.30;;
9142;SDS011;54072;47.410;8.446;2023-04-07T11:20:43;2.53;;;2.33;;
9142;SDS011;54072;47.410;8.446;2023-04-07T11:23:12;2.30;;;2.10;;
9142;SDS011;54072;47.410;8.446;2023-04-07T11:25:40;2.40;;;2.20;;
9142;SDS011;54072;47.410;8.446;2023-04-07T11:28:09;2.50;;;2.30;;
9142;SDS011;54072;47.410;8.446;2023-04-07T11:30:38;2.50;;;2.30;;
9142;SDS011;54072;47.410;8.446;2023-04-07T11:33:16;2.60;;;2.40;;
9142;SDS011;54072;47.410;8.446;2023-04-07T11:35:52;2.40;;;2.20;;
9142;SDS011;54072;47.410;8.446;2023-04-07T11:38:22;2.53;;;2.13;;
9142;SDS011;54072;47.410;8.446;2023-04-07T11:40:50;2.37;;;2.17;;
9142;SDS011;54072;47.410;8.446;2023-04-07T11:43:19;2.50;;;2.30;;
9142;SDS011;54072;47.410;8.446;2023-04-07T11:46:04;2.30;;;2.20;;
9142;SDS011;54072;47.410;8.446;2023-04-07T11:48:34;3.20;;;2.33;;
9142;SDS011;54072;47.410;8.446;2023-04-07T11:51:03;2.93;;;2.60;;
9142;SDS011;54072;47.410;8.446;2023-04-07T11:53:32;2.60;;;2.40;;
9142;SDS011;54072;47.410;8.446;2023-04-07T11:56:01;2.43;;;2.20;;
9142;SDS011;54072;47.410;8.446;2023-04-07T11:58:29;2.40;;;2.20;;
9142;SDS011;54072;47.410;8.446;2023-04-07T12:00:57;2.60;;;2.40;;
9142;SDS011;54072;47.410;8.446;2023-04-07T12:03:30;3.10;;;2.80;;
9142;SDS011;54072;47.410;8.446;2023-04-07T12:06:00;2.37;;;2.17;;
9142;SDS011;54072;47.410;8.446;2023-04-07T12:08:38;2.63;;;2.30;;
9142;SDS011;54072;47.410;8.446;2023-04-07T12:11:06;2.20;;;2.10;;
9142;SDS011;54072;47.410;8.446;2023-04-07T12:13:35;2.40;;;2.20;;
9142;SDS011;54072;47.410;8.446;2023-04-07T12:16:03;2.30;;;2.10;;
9142;SDS011;54072;47.410;8.446;2023-04-07T12:18:32;2.07;;;1.97;;
9142;SDS011;54072;47.410;8.446;2023-04-07T12:21:01;2.20;;;2.00;;
9142;SDS011;54072;47.410;8.446;2023-04-07T12:23:28;2.10;;;1.90;;
9142;SDS011;54072;47.410;8.446;2023-04-07T12:25:56;2.13;;;2.00;;
9142;SDS011;54072;47.410;8.446;2023-04-07T12:28:24;2.20;;;2.00;;
9142;SDS011;54072;47.410;8.446;2023-04-07T12:30:52;2.00;;;1.90;;
9142;SDS011;54072;47.410;8.446;2023-04-07T12:33:20;2.40;;;2.20;;
9142;SDS011;54072;47.410;8.446;2023-04-07T12:35:48;2.03;;;1.70;;
9142;SDS011;54072;47.410;8.446;2023-04-07T12:38:18;1.80;;;1.70;;
9142;SDS011;54072;47.410;8.446;2023-04-07T12:40:46;2.07;;;1.87;;
9142;SDS011;54072;47.410;8.446;2023-04-07T12:43:13;1.73;;;1.63;;
9142;SDS011;54072;47.410;8.446;2023-04-07T12:45:41;1.40;;;1.37;;
9142;SDS011;54072;47.410;8.446;2023-04-07T12:48:09;1.77;;;1.67;;
9142;SDS011;54072;47.410;8.446;2023-04-07T12:50:36;1.40;;;1.30;;
9142;SDS011;54072;47.410;8.446;2023-04-07T12:53:04;1.60;;;1.50;;
9142;SDS011;54072;47.410;8.446;2023-04-07T12:55:33;1.57;;;1.20;;
9142;SDS011;54072;47.410;8.446;2023-04-07T12:58:01;1.43;;;1.17;;
9142;SDS011;54072;47.410;8.446;2023-04-07T13:00:29;1.20;;;1.10;;
9142;SDS011;54072;47.410;8.446;2023-04-07T13:02:57;1.50;;;1.40;;
9142;SDS011;54072;47.410;8.446;2023-04-07T13:05:25;1.27;;;1.23;;
9142;SDS011;54072;47.410;8.446;2023-04-07T13:07:53;1.07;;;1.07;;
9142;SDS011;54072;47.410;8.446;2023-04-07T13:10:21;1.03;;;1.00;;
9142;SDS011;54072;47.410;8.446;2023-04-07T13:12:50;1.20;;;1.10;;
9142;SDS011;54072;47.410;8.446;2023-04-07T13:15:18;1.20;;;1.10;;
9142;SDS011;54072;47.410;8.446;2023-04-07T13:17:46;1.03;;;0.93;;
9142;SDS011;54072;47.410;8.446;2023-04-07T13:20:13;0.90;;;0.90;;
9142;SDS011;54072;47.410;8.446;2023-04-07T13:22:44;0.83;;;0.83;;
9142;SDS011;54072;47.410;8.446;2023-04-07T13:25:14;0.90;;;0.90;;
9142;SDS011;54072;47.410;8.446;2023-04-07T13:27:42;0.90;;;0.90;;
9142;SDS011;54072;47.410;8.446;2023-04-07T13:30:12;0.90;;;0.90;;
9142;SDS011;54072;47.410;8.446;2023-04-07T13:32:40;1.00;;;1.00;;
9142;SDS011;54072;47.410;8.446;2023-04-07T13:35:08;0.93;;;0.93;;
9142;SDS011;54072;47.410;8.446;2023-04-07T13:37:36;0.90;;;0.90;;
9142;SDS011;54072;47.410;8.446;2023-04-07T13:40:04;1.13;;;1.13;;
9142;SDS011;54072;47.410;8.446;2023-04-07T13:42:33;0.97;;;0.97;;
9142;SDS011;54072;47.410;8.446;2023-04-07T13:45:00;1.00;;;1.00;;
9142;SDS011;54072;47.410;8.446;2023-04-07T13:47:30;1.30;;;1.20;;
9142;SDS011;54072;47.410;8.446;2023-04-07T13:49:59;1.37;;;0.90;;
9142;SDS011;54072;47.410;8.446;2023-04-07T13:52:27;1.00;;;1.00;;
9142;SDS011;54072;47.410;8.446;2023-04-07T13:54:55;1.07;;;1.07;;
9142;SDS011;54072;47.410;8.446;2023-04-07T13:57:23;1.00;;;1.00;;
9142;SDS011;54072;47.410;8.446;2023-04-07T13:59:51;1.10;;;1.10;;
9142;SDS011;54072;47.410;8.446;2023-04-07T14:02:18;1.33;;;1.23;;
9142;SDS011;54072;47.410;8.446;2023-04-07T14:04:48;1.53;;;1.43;;
9142;SDS011;54072;47.410;8.446;2023-04-07T14:07:15;1.40;;;1.30;;
9142;SDS011;54072;47.410;8.446;2023-04-07T14:09:43;1.53;;;1.43;;
9142;SDS011;54072;47.410;8.446;2023-04-07T14:12:11;1.63;;;1.57;;
9142;SDS011;54072;47.410;8.446;2023-04-07T14:14:39;1.60;;;1.50;;
9142;SDS011;54072;47.410;8.446;2023-04-07T14:17:07;1.60;;;1.50;;
9142;SDS011;54072;47.410;8.446;2023-04-07T14:19:35;1.67;;;1.57;;
9142;SDS011;54072;47.410;8.446;2023-04-07T14:22:04;1.60;;;1.50;;
9142;SDS011;54072;47.410;8.446;2023-04-07T14:24:32;1.53;;;1.47;;
9142;SDS011;54072;47.410;8.446;2023-04-07T14:26:59;1.70;;;1.60;;
9142;SDS011;54072;47.410;8.446;2023-04-07T14:29:29;1.50;;;1.50;;
9142;SDS011;54072;47.410;8.446;2023-04-07T14:31:56;1.60;;;1.50;;
9142;SDS011;54072;47.410;8.446;2023-04-07T14:34:24;1.60;;;1.50;;
9142;SDS011;54072;47.410;8.446;2023-04-07T14:36:52;1.37;;;1.30;;
9142;SDS011;54072;47.410;8.446;2023-04-07T14:39:22;1.27;;;1.27;;
9142;SDS011;54072;47.410;8.446;2023-04-07T14:41:50;2.30;;;1.70;;
9142;SDS011;54072;47.410;8.446;2023-04-07T14:44:18;1.40;;;1.40;;
9142;SDS011;54072;47.410;8.446;2023-04-07T14:46:46;1.50;;;1.40;;
9142;SDS011;54072;47.410;8.446;2023-04-07T14:49:14;2.10;;;2.00;;
9142;SDS011;54072;47.410;8.446;2023-04-07T14:51:42;1.60;;;1.50;;
9142;SDS011;54072;47.410;8.446;2023-04-07T14:54:10;1.80;;;1.70;;
9142;SDS011;54072;47.410;8.446;2023-04-07T14:56:39;1.70;;;1.60;;
9142;SDS011;54072;47.410;8.446;2023-04-07T14:59:07;1.60;;;1.50;;
9142;SDS011;54072;47.410;8.446;2023-04-07T15:01:35;1.70;;;1.60;;
9142;SDS011;54072;47.410;8.446;2023-04-07T15:04:03;2.00;;;1.70;;
9142;SDS011;54072;47.410;8.446;2023-04-07T15:06:31;1.80;;;1.70;;
9142;SDS011;54072;47.410;8.446;2023-04-07T15:08:59;1.80;;;1.70;;
9142;SDS011;54072;47.410;8.446;2023-04-07T15:11:27;2.17;;;2.07;;
9142;SDS011;54072;47.410;8.446;2023-04-07T15:13:56;2.00;;;1.90;;
9142;SDS011;54072;47.410;8.446;2023-04-07T15:16:23;1.90;;;1.70;;
9142;SDS011;54072;47.410;8.446;2023-04-07T15:18:51;2.23;;;2.00;;
9142;SDS011;54072;47.410;8.446;2023-04-07T15:21:19;2.30;;;2.10;;